createdAt,value
2023-01-19T00:04:02.491Z,9.27
2023-01-19T00:09:04.441Z,8.48
2023-01-19T00:14:06.311Z,9.05
2023-01-19T00:19:08.784Z,7.93
2023-01-19T00:24:10.738Z,9.38
2023-01-19T00:29:13.530Z,8.50
2023-01-19T00:34:15.479Z,8.82
2023-01-19T00:39:17.274Z,7.88
2023-01-19T00:44:19.083Z,8.07
2023-01-19T00:49:20.996Z,9.00
2023-01-19T00:54:22.716Z,9.02
2023-01-19T00:59:25.937Z,8.45
2023-01-19T01:04:27.767Z,8.90
2023-01-19T01:09:30.099Z,8.68
2023-01-19T01:14:32.017Z,9.82
2023-01-19T01:19:34.085Z,10.63
2023-01-19T01:24:36.291Z,9.60
2023-01-19T01:29:39.743Z,10.32
2023-01-19T01:34:41.904Z,10.40
2023-01-19T01:39:43.671Z,11.07
2023-01-19T01:44:52.439Z,10.20
2023-01-19T01:50:04.159Z,10.25
2023-01-19T01:55:07.385Z,11.05
2023-01-19T02:00:10.900Z,10.15
2023-01-19T02:05:26.818Z,9.85
2023-01-19T02:10:47.288Z,9.02
2023-01-19T02:15:51.824Z,10.70
2023-01-19T02:21:00.128Z,10.32
2023-01-19T02:26:02.644Z,9.73
2023-01-19T02:31:04.829Z,10.82
2023-01-19T02:36:09.851Z,12.20
2023-01-19T02:41:15.339Z,10.18
2023-01-19T02:46:17.309Z,11.10
2023-01-19T02:51:24.207Z,11.85
2023-01-19T02:56:38.519Z,12.02
2023-01-19T03:02:11.184Z,12.50
2023-01-19T03:07:22.063Z,12.60
2023-01-19T03:12:25.955Z,12.02
2023-01-19T03:17:31.068Z,11.85
2023-01-19T03:22:34.216Z,11.82
2023-01-19T03:27:40.916Z,11.95
2023-01-19T03:32:51.611Z,11.85
2023-01-19T03:37:58.222Z,12.43
2023-01-19T03:43:02.094Z,12.90
2023-01-19T03:48:05.296Z,11.55
2023-01-19T03:53:11.419Z,12.45
2023-01-19T03:58:13.411Z,12.48
2023-01-19T04:03:16.983Z,12.73
2023-01-19T04:08:19.448Z,12.40
2023-01-19T04:13:21.214Z,13.10
2023-01-19T04:18:22.917Z,11.55
2023-01-19T04:23:25.274Z,11.80
2023-01-19T04:28:27.676Z,12.02
2023-01-19T04:33:30.031Z,11.73
2023-01-19T04:38:32.167Z,13.07
2023-01-19T04:43:34.050Z,12.70
2023-01-19T04:48:35.959Z,11.93
2023-01-19T04:53:37.812Z,12.38
2023-01-19T04:58:39.808Z,12.23
2023-01-19T05:03:41.507Z,12.40
2023-01-19T05:08:45.286Z,10.90
2023-01-19T05:13:47.198Z,12.38
2023-01-19T05:18:48.994Z,10.98
2023-01-19T05:23:50.676Z,11.88
2023-01-19T05:28:52.351Z,11.73
2023-01-19T05:33:54.106Z,10.88
2023-01-19T05:38:56.118Z,11.15
2023-01-19T05:43:59.285Z,10.40
2023-01-19T05:49:04.393Z,11.63
2023-01-19T05:54:07.522Z,10.63
2023-01-19T05:59:10.554Z,10.35
2023-01-19T06:04:12.221Z,10.85
2023-01-19T06:09:14.344Z,13.63
2023-01-19T06:14:16.163Z,11.38
2023-01-19T06:19:18.113Z,11.73
2023-01-19T06:24:20.101Z,11.90
2023-01-19T06:29:22.338Z,11.52
2023-01-19T06:34:29.150Z,13.52
2023-01-19T06:39:31.290Z,12.10
2023-01-19T06:44:33.107Z,11.80
2023-01-19T06:49:35.007Z,12.05
2023-01-19T06:54:36.975Z,12.55
2023-01-19T06:59:39.685Z,12.10
2023-01-19T07:04:41.673Z,12.18
2023-01-19T07:09:43.353Z,12.95
2023-01-19T07:14:45.266Z,11.88
2023-01-19T07:19:47.109Z,13.40
2023-01-19T07:24:48.871Z,12.82
2023-01-19T07:29:50.760Z,15.48
2023-01-19T07:34:52.348Z,13.98
2023-01-19T07:39:54.178Z,16.38
2023-01-19T07:44:55.939Z,13.02
2023-01-19T07:49:57.768Z,12.45
2023-01-19T07:54:59.562Z,14.45
2023-01-19T08:00:01.395Z,21.15
2023-01-19T08:05:03.378Z,17.88
2023-01-19T08:10:05.545Z,24.30
2023-01-19T08:15:08.195Z,15.93
2023-01-19T08:20:11.230Z,14.50
2023-01-19T08:25:12.871Z,13.65
2023-01-19T08:30:15.001Z,13.50
2023-01-19T08:35:16.696Z,12.88
2023-01-19T08:40:18.512Z,12.38
2023-01-19T08:45:20.588Z,11.25
2023-01-19T08:50:22.764Z,10.73
2023-01-19T08:55:25.445Z,11.48
2023-01-19T09:00:27.643Z,10.55
2023-01-19T09:05:32.196Z,11.02
2023-01-19T09:10:38.206Z,9.82
2023-01-19T09:15:41.297Z,9.98
2023-01-19T09:20:45.190Z,9.13
2023-01-19T09:25:47.330Z,9.43
2023-01-19T09:30:49.367Z,9.10
2023-01-19T09:35:51.994Z,8.40
2023-01-19T09:40:56.322Z,10.20
2023-01-19T09:46:00.437Z,9.43
2023-01-19T09:51:04.883Z,8.10
2023-01-19T09:56:12.456Z,8.93
2023-01-19T10:01:35.602Z,8.32
2023-01-19T10:06:37.466Z,8.00
2023-01-19T10:11:53.311Z,8.55
2023-01-19T10:17:22.402Z,7.05
2023-01-19T10:22:27.099Z,9.52
2023-01-19T10:27:32.320Z,7.85
2023-01-19T10:32:36.113Z,7.68
2023-01-19T10:37:38.691Z,7.38
2023-01-19T10:42:42.307Z,7.18
2023-01-19T10:47:47.060Z,7.07
2023-01-19T10:52:54.381Z,8.13
2023-01-19T10:57:57.580Z,6.83
2023-01-19T11:03:00.347Z,7.25
2023-01-19T11:08:22.863Z,6.53
2023-01-19T11:13:24.860Z,6.97
2023-01-19T11:18:40.191Z,6.32
2023-01-19T11:23:51.275Z,6.07
2023-01-19T11:28:56.176Z,6.55
2023-01-19T11:34:22.094Z,6.50
2023-01-19T11:39:28.277Z,7.07
2023-01-19T11:44:37.489Z,7.43
2023-01-19T11:49:47.100Z,7.57
2023-01-19T11:54:59.185Z,6.90
2023-01-19T12:00:05.314Z,6.45
2023-01-19T12:05:14.801Z,7.05
2023-01-19T12:10:37.299Z,8.18
2023-01-19T12:15:44.462Z,9.07
2023-01-19T12:20:53.516Z,7.05
2023-01-19T12:26:16.474Z,6.72
2023-01-19T12:31:21.764Z,6.65
2023-01-19T12:36:26.706Z,5.22
2023-01-19T12:41:38.691Z,4.63
2023-01-19T12:46:52.639Z,4.32
2023-01-19T12:52:17.345Z,5.78
2023-01-19T12:57:33.450Z,4.30
2023-01-19T13:02:44.096Z,10.38
2023-01-19T13:08:12.595Z,13.43
2023-01-19T13:13:22.770Z,3.72
2023-01-19T13:18:28.482Z,3.22
2023-01-19T13:23:51.471Z,3.53
2023-01-19T13:28:57.579Z,2.70
2023-01-19T13:34:01.662Z,2.25
2023-01-19T13:39:06.508Z,2.67
2023-01-19T13:44:20.856Z,2.75
2023-01-19T13:49:29.236Z,1.67
2023-01-19T13:54:31.308Z,2.13
2023-01-19T13:59:33.103Z,2.30
2023-01-19T14:04:34.947Z,2.60
2023-01-19T14:09:36.659Z,2.30
2023-01-19T14:14:38.696Z,2.90
2023-01-19T14:19:51.049Z,3.08
2023-01-19T14:24:52.824Z,2.60
2023-01-19T14:29:54.970Z,2.60
2023-01-19T14:35:04.821Z,2.30
2023-01-19T14:40:13.250Z,2.03
2023-01-19T14:45:22.453Z,2.10
2023-01-19T14:50:31.196Z,2.10
2023-01-19T14:55:51.330Z,1.80
2023-01-19T15:00:56.328Z,1.58
2023-01-19T15:06:00.255Z,1.13
2023-01-19T15:11:10.824Z,1.85
2023-01-19T15:16:12.574Z,1.38
2023-01-19T15:21:16.111Z,1.85
2023-01-19T15:26:20.850Z,1.20
2023-01-19T15:31:24.913Z,1.13
2023-01-19T15:36:27.193Z,1.63
2023-01-19T15:41:31.072Z,1.08
2023-01-19T15:46:34.827Z,1.40
2023-01-19T15:51:36.597Z,1.92
2023-01-19T15:56:38.313Z,1.80
2023-01-19T16:01:40.490Z,1.70
2023-01-19T16:06:42.401Z,5.15
2023-01-19T16:11:44.610Z,10.95
2023-01-19T16:16:46.535Z,11.05
2023-01-19T16:21:48.650Z,5.55
2023-01-19T16:26:50.431Z,5.90
2023-01-19T16:31:52.166Z,6.75
2023-01-19T16:36:54.035Z,11.68
2023-01-19T16:41:55.927Z,19.08
2023-01-19T16:46:57.679Z,26.10
2023-01-19T16:51:59.533Z,20.10
2023-01-19T16:57:01.907Z,12.85
2023-01-19T17:02:03.802Z,9.77
2023-01-19T17:07:05.845Z,7.97
2023-01-19T17:12:09.205Z,9.50
2023-01-19T17:17:10.900Z,9.25
2023-01-19T17:22:13.549Z,7.68
2023-01-19T17:27:15.466Z,7.78
2023-01-19T17:32:17.257Z,8.75
2023-01-19T17:37:19.067Z,7.57
2023-01-19T17:42:20.864Z,6.53
2023-01-19T17:47:25.558Z,7.93
2023-01-19T17:52:27.598Z,6.90
2023-01-19T17:57:30.836Z,7.28
2023-01-19T18:02:33.180Z,7.45
2023-01-19T18:07:38.464Z,7.65
2023-01-19T18:12:41.635Z,9.45
2023-01-19T18:17:43.570Z,7.63
2023-01-19T18:22:45.400Z,7.55
2023-01-19T18:27:51.761Z,11.45
2023-01-19T18:32:53.591Z,7.80
2023-01-19T18:37:57.344Z,7.80
2023-01-19T18:42:59.386Z,8.40
2023-01-19T18:48:02.635Z,7.82
2023-01-19T18:53:05.444Z,8.73
2023-01-19T18:58:07.590Z,7.88
2023-01-19T19:03:10.575Z,9.07
2023-01-19T19:08:13.063Z,8.05
2023-01-19T19:13:16.450Z,8.85
2023-01-19T19:18:18.860Z,9.07
2023-01-19T19:23:20.860Z,8.75
2023-01-19T19:28:22.744Z,9.15
2023-01-19T19:33:24.823Z,9.02
2023-01-19T19:38:28.484Z,9.10
2023-01-19T19:43:33.275Z,9.25
2023-01-19T19:48:39.322Z,8.48
2023-01-19T19:53:41.432Z,19.90
2023-01-19T19:58:43.651Z,13.32
2023-01-19T20:03:46.110Z,12.55
2023-01-19T20:08:49.922Z,10.65
2023-01-19T20:13:52.239Z,11.43
2023-01-19T20:18:57.254Z,10.68
2023-01-19T20:24:02.813Z,10.35
2023-01-19T20:29:10.563Z,9.52
2023-01-19T20:34:14.860Z,9.20
2023-01-19T20:39:20.097Z,9.32
2023-01-19T20:44:24.273Z,10.13
2023-01-19T20:49:27.756Z,10.70
2023-01-19T20:54:30.589Z,13.63
2023-01-19T20:59:34.305Z,13.02
2023-01-19T21:04:36.081Z,11.75
2023-01-19T21:09:38.999Z,11.25
2023-01-19T21:14:43.223Z,13.13
2023-01-19T21:19:46.663Z,11.32
2023-01-19T21:24:48.799Z,10.88
2023-01-19T21:29:50.738Z,11.77
2023-01-19T21:34:53.055Z,11.55
2023-01-19T21:39:55.100Z,10.00
2023-01-19T21:44:56.979Z,10.00
2023-01-19T21:49:58.896Z,10.20
2023-01-19T21:55:00.863Z,9.73
2023-01-19T22:00:02.859Z,9.95
2023-01-19T22:05:10.786Z,11.23
2023-01-19T22:10:13.103Z,10.77
2023-01-19T22:15:15.677Z,10.27
2023-01-19T22:20:17.792Z,9.40
2023-01-19T22:25:23.982Z,8.85
2023-01-19T22:30:26.153Z,9.75
2023-01-19T22:35:28.258Z,9.95
2023-01-19T22:40:30.445Z,9.82
2023-01-19T22:45:47.455Z,7.27
2023-01-19T22:50:49.406Z,9.32
2023-01-19T22:55:51.260Z,9.00
2023-01-19T23:00:53.381Z,9.10
2023-01-19T23:05:55.598Z,9.07
2023-01-19T23:10:57.624Z,9.05
2023-01-19T23:16:00.251Z,9.88
2023-01-19T23:21:07.859Z,11.27
2023-01-19T23:26:15.242Z,10.02
2023-01-19T23:31:18.491Z,9.13
2023-01-19T23:36:21.956Z,9.23
2023-01-19T23:41:25.888Z,9.63
2023-01-19T23:46:28.661Z,10.05
2023-01-19T23:51:32.806Z,10.07
2023-01-19T23:56:38.073Z,10.55
